Viewmont, North Carolina
Current Conditions -  °F | °C
As of 1:53 PM on Friday 28 Nov 2014 (Local Time) from KHKY Reporting Station
Clear Clear  
Wind Chill: 42°   Ceiling: Unl
Heat Index: 42°   Visibility: 10mi
Dew Point: 15°   Wind: 0mph
Humidity: 34%   Direction: NA
Pressure: 30.26"   Gusts: NA
Location:  35.7628°N, 81.3219°W
Report Text: KHKY 281853Z 00000KT 10SM CLR 06/M09 A3026 RMK AO2 SLP245 T00561094
Loading
Personal Weather Stations






























Interactive Weather Map New forecast layout! Learn more

10-Day Weather Forecast

Advertisements
Track Severe Weather on mobile